createdAt,value
2023-01-19T00:00:53.470Z,81.75
2023-01-19T00:03:20.167Z,81.68
2023-01-19T00:05:46.992Z,81.75
2023-01-19T00:08:16.673Z,81.70
2023-01-19T00:10:45.420Z,82.46
2023-01-19T00:13:12.579Z,81.98
2023-01-19T00:15:39.298Z,82.96
2023-01-19T00:18:06.142Z,83.19
2023-01-19T00:20:35.317Z,82.34
2023-01-19T00:23:03.368Z,82.05
2023-01-19T00:25:30.744Z,82.51
2023-01-19T00:27:57.649Z,82.12
2023-01-19T00:30:25.138Z,82.54
2023-01-19T00:32:51.870Z,81.88
2023-01-19T00:35:18.523Z,81.81
2023-01-19T00:37:46.133Z,81.88
2023-01-19T00:40:14.031Z,81.05
2023-01-19T00:42:40.985Z,81.78
2023-01-19T00:45:09.648Z,81.96
2023-01-19T00:47:36.686Z,82.33
2023-01-19T00:50:03.513Z,81.74
2023-01-19T00:52:30.158Z,82.46
2023-01-19T00:54:56.959Z,82.34
2023-01-19T00:57:23.733Z,82.82
2023-01-19T00:59:50.396Z,83.42
2023-01-19T01:02:17.372Z,83.36
2023-01-19T01:04:44.259Z,83.03
2023-01-19T01:07:10.887Z,83.26
2023-01-19T01:09:37.486Z,82.82
2023-01-19T01:12:04.527Z,82.26
2023-01-19T01:14:32.786Z,82.20
2023-01-19T01:17:00.560Z,81.59
2023-01-19T01:19:27.338Z,81.05
2023-01-19T01:21:55.434Z,80.96
2023-01-19T01:24:22.330Z,81.20
2023-01-19T01:26:49.095Z,80.30
2023-01-19T01:29:15.803Z,79.55
2023-01-19T01:31:42.470Z,79.84
2023-01-19T01:34:09.215Z,80.65
2023-01-19T01:36:36.120Z,80.95
2023-01-19T01:39:03.395Z,81.16
2023-01-19T01:41:30.399Z,81.04
2023-01-19T01:44:02.935Z,81.29
2023-01-19T01:46:31.388Z,80.62
2023-01-19T01:49:04.092Z,80.23
2023-01-19T01:51:44.187Z,80.16
2023-01-19T01:54:23.391Z,80.71
2023-01-19T01:56:52.063Z,80.41
2023-01-19T01:59:26.035Z,80.50
2023-01-19T02:02:15.516Z,80.74
2023-01-19T02:04:50.684Z,80.31
2023-01-19T02:07:43.199Z,79.77
2023-01-19T02:10:28.599Z,80.61
2023-01-19T02:13:14.298Z,80.65
2023-01-19T02:15:44.131Z,81.20
2023-01-19T02:18:10.847Z,81.51
2023-01-19T02:20:39.569Z,81.84
2023-01-19T02:23:12.658Z,81.60
2023-01-19T02:25:40.520Z,81.59
2023-01-19T02:28:07.752Z,81.83
2023-01-19T02:30:35.676Z,82.08
2023-01-19T02:33:02.739Z,81.76
2023-01-19T02:35:31.020Z,81.64
2023-01-19T02:37:57.917Z,82.31
2023-01-19T02:40:25.771Z,82.07
2023-01-19T02:42:53.150Z,82.29
2023-01-19T02:45:21.570Z,82.00
2023-01-19T02:47:50.800Z,82.27
2023-01-19T02:50:35.919Z,82.10
2023-01-19T02:53:33.969Z,81.95
2023-01-19T02:56:28.554Z,81.76
2023-01-19T02:59:15.563Z,82.36
2023-01-19T03:02:08.823Z,82.53
2023-01-19T03:05:00.528Z,82.22
2023-01-19T03:07:53.305Z,82.73
2023-01-19T03:10:43.457Z,83.63
2023-01-19T03:13:26.280Z,82.87
2023-01-19T03:15:56.617Z,82.95
2023-01-19T03:18:26.299Z,83.66
2023-01-19T03:20:56.629Z,83.73
2023-01-19T03:23:26.664Z,82.85
2023-01-19T03:25:54.443Z,82.89
2023-01-19T03:28:22.822Z,82.63
2023-01-19T03:30:56.622Z,82.63
2023-01-19T03:33:27.396Z,83.01
2023-01-19T03:35:58.798Z,84.32
2023-01-19T03:38:26.354Z,84.08
2023-01-19T03:40:59.147Z,83.99
2023-01-19T03:43:26.592Z,83.48
2023-01-19T03:45:53.422Z,83.58
2023-01-19T03:48:21.402Z,83.25
2023-01-19T03:50:48.179Z,83.75
2023-01-19T03:53:16.643Z,83.85
2023-01-19T03:55:47.051Z,83.66
2023-01-19T03:58:13.930Z,83.91
2023-01-19T04:00:40.619Z,84.66
2023-01-19T04:03:13.352Z,83.99
2023-01-19T04:05:40.238Z,83.69
2023-01-19T04:08:06.968Z,83.77
2023-01-19T04:10:33.691Z,84.18
2023-01-19T04:13:01.736Z,84.41
2023-01-19T04:15:29.171Z,84.03
2023-01-19T04:18:00.188Z,83.41
2023-01-19T04:20:28.169Z,83.98
2023-01-19T04:22:56.116Z,84.65
2023-01-19T04:25:22.945Z,84.25
2023-01-19T04:27:52.861Z,84.50
2023-01-19T04:30:19.843Z,84.75
2023-01-19T04:32:46.743Z,85.25
2023-01-19T04:35:13.516Z,85.16
2023-01-19T04:37:40.222Z,85.19
2023-01-19T04:40:07.745Z,85.54
2023-01-19T04:42:34.739Z,85.76
2023-01-19T04:45:01.417Z,85.64
2023-01-19T04:47:29.399Z,85.66
2023-01-19T04:49:55.996Z,85.50
2023-01-19T04:52:22.659Z,85.26
2023-01-19T04:54:49.274Z,86.18
2023-01-19T04:57:15.894Z,85.62
2023-01-19T04:59:42.787Z,85.48
2023-01-19T05:02:09.512Z,85.53
2023-01-19T05:04:36.364Z,85.79
2023-01-19T05:07:03.136Z,85.14
2023-01-19T05:09:29.750Z,85.73
2023-01-19T05:11:56.474Z,85.90
2023-01-19T05:14:23.228Z,85.90
2023-01-19T05:16:50.143Z,86.49
2023-01-19T05:19:17.110Z,86.36
2023-01-19T05:21:43.920Z,86.96
2023-01-19T05:24:11.052Z,87.00
2023-01-19T05:26:37.823Z,86.79
2023-01-19T05:29:04.681Z,86.51
2023-01-19T05:31:31.455Z,86.32
2023-01-19T05:34:01.641Z,86.71
2023-01-19T05:36:28.307Z,86.96
2023-01-19T05:38:54.968Z,87.48
2023-01-19T05:41:21.740Z,87.32
2023-01-19T05:43:48.426Z,86.58
2023-01-19T05:46:15.314Z,86.85
2023-01-19T05:48:41.947Z,86.56
2023-01-19T05:51:08.966Z,86.68
2023-01-19T05:53:35.582Z,87.37
2023-01-19T05:56:05.083Z,87.29
2023-01-19T05:58:34.336Z,87.57
2023-01-19T06:01:06.396Z,87.35
2023-01-19T06:03:34.471Z,87.53
2023-01-19T06:06:01.612Z,87.61
2023-01-19T06:08:28.327Z,87.14
2023-01-19T06:10:55.159Z,87.27
2023-01-19T06:13:21.921Z,87.61
2023-01-19T06:15:48.668Z,88.01
2023-01-19T06:18:15.373Z,87.50
2023-01-19T06:20:42.027Z,87.54
2023-01-19T06:23:08.736Z,87.89
2023-01-19T06:25:35.383Z,87.65
2023-01-19T06:28:02.045Z,87.29
2023-01-19T06:30:29.003Z,87.90
2023-01-19T06:32:55.849Z,88.40
2023-01-19T06:35:22.514Z,88.06
2023-01-19T06:37:49.194Z,87.69
2023-01-19T06:40:15.850Z,88.10
2023-01-19T06:42:42.610Z,87.83
2023-01-19T06:45:10.164Z,87.42
2023-01-19T06:47:36.855Z,87.50
2023-01-19T06:50:03.565Z,87.69
2023-01-19T06:52:30.247Z,87.74
2023-01-19T06:54:56.931Z,88.17
2023-01-19T06:57:23.657Z,88.37
2023-01-19T06:59:50.294Z,88.51
2023-01-19T07:02:27.062Z,88.29
2023-01-19T07:04:56.350Z,88.21
2023-01-19T07:07:23.039Z,88.17
2023-01-19T07:09:49.768Z,87.74
2023-01-19T07:12:20.607Z,88.07
2023-01-19T07:14:49.298Z,88.23
2023-01-19T07:17:15.982Z,89.29
2023-01-19T07:19:42.978Z,89.68
2023-01-19T07:22:09.663Z,88.89
2023-01-19T07:24:37.952Z,88.79
2023-01-19T07:27:05.331Z,88.26
2023-01-19T07:29:31.991Z,88.13
2023-01-19T07:31:58.654Z,88.13
2023-01-19T07:34:25.311Z,88.15
2023-01-19T07:36:51.963Z,88.68
2023-01-19T07:39:18.697Z,87.79
2023-01-19T07:41:45.406Z,87.93
2023-01-19T07:44:13.950Z,88.88
2023-01-19T07:46:41.159Z,88.91
2023-01-19T07:49:08.095Z,88.50
2023-01-19T07:51:34.794Z,88.48
2023-01-19T07:54:01.689Z,88.51
2023-01-19T07:56:32.634Z,88.55
2023-01-19T07:58:59.524Z,88.73
2023-01-19T08:01:26.296Z,89.55
2023-01-19T08:03:53.142Z,88.87
2023-01-19T08:06:22.271Z,88.94
2023-01-19T08:08:49.340Z,88.81
2023-01-19T08:11:16.282Z,89.86
2023-01-19T08:13:43.483Z,89.43
2023-01-19T08:16:10.758Z,89.39
2023-01-19T08:18:37.598Z,88.71
2023-01-19T08:21:04.813Z,88.87
2023-01-19T08:23:31.465Z,89.21
2023-01-19T08:25:58.096Z,89.29
2023-01-19T08:28:24.811Z,88.89
2023-01-19T08:30:54.620Z,88.53
2023-01-19T08:33:23.154Z,88.71
2023-01-19T08:35:52.375Z,88.40
2023-01-19T08:38:19.403Z,88.30
2023-01-19T08:40:46.182Z,88.01
2023-01-19T08:43:15.649Z,88.46
2023-01-19T08:45:49.056Z,88.11
2023-01-19T08:48:16.163Z,88.56
2023-01-19T08:50:45.205Z,87.72
2023-01-19T08:53:11.921Z,87.50
2023-01-19T08:55:39.177Z,87.06
2023-01-19T08:58:06.515Z,87.26
2023-01-19T09:00:38.013Z,86.89
2023-01-19T09:03:06.536Z,86.47
2023-01-19T09:05:39.019Z,86.21
2023-01-19T09:08:11.103Z,85.91
2023-01-19T09:10:39.024Z,86.52
2023-01-19T09:13:08.418Z,86.88
2023-01-19T09:15:37.589Z,86.53
2023-01-19T09:18:05.869Z,86.89
2023-01-19T09:20:34.574Z,86.13
2023-01-19T09:23:01.355Z,86.01
2023-01-19T09:25:27.994Z,85.74
2023-01-19T09:27:56.065Z,85.56
2023-01-19T09:30:22.739Z,86.04
2023-01-19T09:32:49.375Z,85.87
2023-01-19T09:35:16.453Z,86.48
2023-01-19T09:37:47.161Z,86.49
2023-01-19T09:40:15.338Z,86.22
2023-01-19T09:42:43.997Z,86.33
2023-01-19T09:45:36.574Z,86.01
2023-01-19T09:48:19.193Z,86.42
2023-01-19T09:50:47.435Z,86.38
2023-01-19T09:53:18.795Z,86.17
2023-01-19T09:55:45.654Z,86.35
2023-01-19T09:58:16.195Z,86.92
2023-01-19T10:00:50.017Z,85.91
2023-01-19T10:03:17.777Z,86.13
2023-01-19T10:06:03.613Z,86.86
2023-01-19T10:08:46.521Z,86.65
2023-01-19T10:11:26.307Z,86.23
2023-01-19T10:13:54.657Z,86.32
2023-01-19T10:17:15.629Z,85.87
2023-01-19T10:19:46.823Z,85.67
2023-01-19T10:22:25.724Z,85.46
2023-01-19T10:24:56.354Z,85.49
2023-01-19T10:27:28.925Z,85.76
2023-01-19T10:29:56.701Z,85.79
2023-01-19T10:32:26.241Z,85.51
2023-01-19T10:34:53.968Z,85.94
2023-01-19T10:37:32.777Z,86.30
2023-01-19T10:40:11.609Z,86.19
2023-01-19T10:42:41.427Z,86.17
2023-01-19T10:45:25.942Z,86.21
2023-01-19T10:47:53.895Z,85.66
2023-01-19T10:50:34.962Z,85.35
2023-01-19T10:53:04.016Z,85.66
2023-01-19T10:55:34.284Z,85.75
2023-01-19T10:58:01.941Z,85.62
2023-01-19T11:00:33.185Z,85.28
2023-01-19T11:03:00.636Z,85.45
2023-01-19T11:05:32.843Z,85.78
2023-01-19T11:07:59.749Z,85.52
2023-01-19T11:10:30.133Z,85.37
2023-01-19T11:13:15.678Z,85.41
2023-01-19T11:15:45.197Z,85.31
2023-01-19T11:18:25.494Z,85.30
2023-01-19T11:20:53.952Z,85.49
2023-01-19T11:23:33.584Z,85.39
2023-01-19T11:26:01.928Z,85.41
2023-01-19T11:28:32.928Z,85.70
2023-01-19T11:31:16.698Z,85.76
2023-01-19T11:33:51.819Z,85.70
2023-01-19T11:36:30.152Z,85.61
2023-01-19T11:38:59.577Z,85.38
2023-01-19T11:41:28.825Z,85.32
2023-01-19T11:43:58.245Z,85.28
2023-01-19T11:46:28.609Z,85.42
2023-01-19T11:49:01.973Z,85.37
2023-01-19T11:51:34.350Z,85.48
2023-01-19T11:54:03.227Z,85.49
2023-01-19T11:56:29.937Z,85.46
2023-01-19T11:58:56.800Z,85.81
2023-01-19T12:01:26.104Z,85.34
2023-01-19T12:04:04.413Z,85.59
2023-01-19T12:06:35.391Z,85.32
2023-01-19T12:09:06.101Z,85.24
2023-01-19T12:11:37.816Z,84.99
2023-01-19T12:14:04.806Z,85.36
2023-01-19T12:16:32.983Z,85.09
2023-01-19T12:19:02.678Z,88.15
2023-01-19T12:21:29.555Z,87.09
2023-01-19T12:24:16.390Z,86.05
2023-01-19T12:26:43.314Z,85.59
2023-01-19T12:29:15.507Z,85.49
2023-01-19T12:31:45.406Z,84.98
2023-01-19T12:34:40.695Z,84.88
2023-01-19T12:37:27.311Z,85.04
2023-01-19T12:39:54.683Z,84.71
2023-01-19T12:42:21.531Z,84.45
2023-01-19T12:44:48.418Z,84.46
2023-01-19T12:47:15.054Z,84.36
2023-01-19T12:49:43.767Z,84.23
2023-01-19T12:52:51.266Z,84.11
2023-01-19T12:55:22.813Z,83.99
2023-01-19T12:57:55.470Z,83.91
2023-01-19T13:00:22.179Z,84.06
2023-01-19T13:02:58.254Z,84.07
2023-01-19T13:05:32.695Z,84.08
2023-01-19T13:08:02.809Z,83.96
2023-01-19T13:11:00.194Z,83.75
2023-01-19T13:13:30.958Z,83.84
2023-01-19T13:16:19.497Z,83.92
2023-01-19T13:18:54.115Z,83.89
2023-01-19T13:21:35.306Z,84.00
2023-01-19T13:24:16.441Z,84.17
2023-01-19T13:26:49.076Z,84.16
2023-01-19T13:29:21.701Z,84.26
2023-01-19T13:32:02.298Z,84.26
2023-01-19T13:34:33.428Z,84.16
2023-01-19T13:37:01.980Z,84.27
2023-01-19T13:39:37.094Z,84.17
2023-01-19T13:42:07.969Z,84.22
2023-01-19T13:44:41.889Z,83.77
2023-01-19T13:47:15.369Z,83.64
2023-01-19T13:49:46.219Z,83.57
2023-01-19T13:52:20.975Z,83.55
2023-01-19T13:54:59.799Z,83.41
2023-01-19T13:57:28.853Z,83.76
2023-01-19T14:00:19.459Z,83.66
2023-01-19T14:03:13.220Z,83.51
2023-01-19T14:05:44.239Z,83.33
2023-01-19T14:08:14.799Z,83.34
2023-01-19T14:10:44.224Z,83.45
2023-01-19T14:13:25.780Z,83.55
2023-01-19T14:15:59.004Z,83.18
2023-01-19T14:18:26.810Z,83.39
2023-01-19T14:21:04.211Z,83.26
2023-01-19T14:23:40.475Z,83.54
2023-01-19T14:26:39.269Z,85.77
2023-01-19T14:29:18.413Z,84.41
2023-01-19T14:31:47.346Z,84.24
2023-01-19T14:34:39.656Z,83.71
2023-01-19T14:37:28.714Z,84.04
2023-01-19T14:40:11.142Z,83.91
2023-01-19T14:43:00.155Z,83.73
2023-01-19T14:45:32.494Z,83.52
2023-01-19T14:48:06.406Z,83.77
2023-01-19T14:50:36.435Z,83.64
2023-01-19T14:53:05.857Z,83.65
2023-01-19T14:55:36.633Z,83.70
2023-01-19T14:58:10.175Z,83.81
2023-01-19T15:00:36.922Z,83.68
2023-01-19T15:03:07.494Z,84.11
2023-01-19T15:05:34.342Z,83.90
2023-01-19T15:08:02.089Z,83.96
2023-01-19T15:10:29.005Z,83.76
2023-01-19T15:12:56.282Z,83.78
2023-01-19T15:15:29.618Z,84.08
2023-01-19T15:17:56.405Z,84.21
2023-01-19T15:20:23.776Z,84.09
2023-01-19T15:22:50.500Z,84.07
2023-01-19T15:25:20.208Z,84.02
2023-01-19T15:27:47.689Z,83.88
2023-01-19T15:30:27.839Z,83.95
2023-01-19T15:32:54.551Z,84.05
2023-01-19T15:35:22.747Z,83.94
2023-01-19T15:37:50.719Z,84.14
2023-01-19T15:40:19.050Z,83.80
2023-01-19T15:42:45.875Z,84.07
2023-01-19T15:45:33.774Z,83.84
2023-01-19T15:48:11.163Z,83.95
2023-01-19T15:50:40.906Z,83.84
2023-01-19T15:53:07.952Z,83.97
2023-01-19T15:55:34.646Z,84.04
2023-01-19T15:58:01.691Z,84.01
2023-01-19T16:00:29.748Z,83.77
2023-01-19T16:02:56.734Z,83.94
2023-01-19T16:05:30.606Z,84.06
2023-01-19T16:08:04.422Z,83.71
2023-01-19T16:10:31.175Z,83.83
2023-01-19T16:12:57.879Z,83.71
2023-01-19T16:15:25.372Z,84.00
2023-01-19T16:17:52.094Z,83.97
2023-01-19T16:20:18.790Z,84.13
2023-01-19T16:22:45.483Z,84.31
2023-01-19T16:25:12.311Z,84.36
2023-01-19T16:27:39.090Z,84.38
2023-01-19T16:30:06.385Z,84.42
2023-01-19T16:32:33.842Z,84.02
2023-01-19T16:35:00.616Z,84.08
2023-01-19T16:37:28.148Z,84.41
2023-01-19T16:39:54.956Z,84.56
2023-01-19T16:42:21.759Z,84.60
2023-01-19T16:44:48.508Z,84.42
2023-01-19T16:47:15.548Z,84.57
2023-01-19T16:49:42.397Z,84.73
2023-01-19T16:52:09.349Z,85.89
2023-01-19T16:54:37.423Z,85.91
2023-01-19T16:57:05.369Z,85.97
2023-01-19T16:59:32.135Z,86.10
2023-01-19T17:01:59.009Z,86.79
2023-01-19T17:04:27.139Z,87.04
2023-01-19T17:06:54.646Z,86.64
2023-01-19T17:09:21.557Z,87.03
2023-01-19T17:11:48.455Z,88.02
2023-01-19T17:14:19.734Z,87.65
2023-01-19T17:16:47.414Z,87.94
2023-01-19T17:19:16.455Z,88.03
2023-01-19T17:21:48.615Z,88.15
2023-01-19T17:24:15.914Z,88.67
2023-01-19T17:26:42.778Z,89.53
2023-01-19T17:29:09.890Z,89.46
2023-01-19T17:31:36.995Z,89.80
2023-01-19T17:34:04.055Z,89.45
2023-01-19T17:36:31.590Z,89.79
2023-01-19T17:39:00.153Z,89.46
2023-01-19T17:41:29.228Z,89.79
2023-01-19T17:48:10.780Z,90.64
2023-01-19T17:50:37.642Z,90.27
2023-01-19T17:53:04.403Z,91.06
2023-01-19T17:55:34.577Z,91.09
2023-01-19T17:58:01.938Z,90.72
2023-01-19T18:00:29.073Z,90.57
2023-01-19T18:02:55.805Z,90.53
2023-01-19T18:05:23.836Z,90.85
2023-01-19T18:07:50.560Z,90.94
2023-01-19T18:10:17.418Z,91.16
2023-01-19T18:12:45.207Z,91.57
2023-01-19T18:15:12.291Z,91.42
2023-01-19T18:17:39.019Z,91.85
2023-01-19T18:20:06.122Z,91.87
2023-01-19T18:22:33.389Z,92.26
2023-01-19T18:25:01.570Z,92.22
2023-01-19T18:27:29.131Z,92.13
2023-01-19T18:29:56.556Z,92.53
2023-01-19T18:32:23.298Z,92.99
2023-01-19T18:34:52.249Z,92.79
2023-01-19T18:37:19.023Z,93.02
2023-01-19T18:39:46.309Z,93.16
2023-01-19T18:42:13.054Z,93.54
2023-01-19T18:44:39.762Z,93.72
2023-01-19T18:47:06.479Z,93.80
2023-01-19T18:49:33.199Z,93.74
2023-01-19T18:51:59.899Z,93.24
2023-01-19T18:54:26.560Z,93.72
2023-01-19T18:56:53.334Z,94.10
2023-01-19T18:59:20.159Z,93.48
2023-01-19T19:01:46.906Z,93.71
2023-01-19T19:04:13.766Z,93.69
2023-01-19T19:06:40.454Z,93.15
2023-01-19T19:09:07.250Z,93.18
2023-01-19T19:11:34.384Z,93.91
2023-01-19T19:14:02.031Z,94.23
2023-01-19T19:16:29.559Z,94.11
2023-01-19T19:18:56.390Z,94.00
2023-01-19T19:21:25.424Z,93.80
2023-01-19T19:23:54.081Z,93.40
2023-01-19T19:26:23.942Z,93.64
2023-01-19T19:32:05.863Z,95.13
2023-01-19T19:34:33.839Z,94.51
2023-01-19T19:37:01.344Z,94.09
2023-01-19T19:39:28.669Z,94.16
2023-01-19T19:41:55.407Z,94.83
2023-01-19T19:44:22.276Z,94.56
2023-01-19T19:46:49.228Z,94.57
2023-01-19T19:49:21.264Z,94.54
2023-01-19T19:51:48.591Z,93.73
2023-01-19T19:54:15.306Z,93.82
2023-01-19T19:56:41.982Z,93.64
2023-01-19T19:59:08.718Z,93.52
2023-01-19T20:01:35.528Z,94.16
2023-01-19T20:04:07.673Z,94.46
2023-01-19T20:06:38.717Z,94.66
2023-01-19T20:09:07.734Z,94.16
2023-01-19T20:11:34.889Z,94.18
2023-01-19T20:14:07.871Z,95.09
2023-01-19T20:16:34.858Z,94.68
2023-01-19T20:19:01.597Z,94.66
2023-01-19T20:21:30.778Z,94.24
2023-01-19T20:24:00.739Z,93.97
2023-01-19T20:26:30.327Z,94.11
2023-01-19T20:28:59.751Z,94.30
2023-01-19T20:31:29.159Z,94.24
2023-01-19T20:33:58.054Z,93.92
2023-01-19T20:36:24.923Z,93.80
2023-01-19T20:38:53.277Z,94.11
2023-01-19T20:41:21.020Z,93.97
2023-01-19T20:43:47.770Z,93.83
2023-01-19T20:46:14.466Z,94.15
2023-01-19T20:48:41.241Z,94.82
2023-01-19T20:51:10.663Z,94.47
2023-01-19T20:53:38.126Z,94.36
2023-01-19T20:56:06.275Z,94.67
2023-01-19T20:58:33.414Z,94.60
2023-01-19T21:01:00.126Z,94.80
2023-01-19T21:03:26.963Z,94.51
2023-01-19T21:05:53.645Z,94.46
2023-01-19T21:08:20.491Z,94.63
2023-01-19T21:10:47.171Z,95.25
2023-01-19T21:13:13.983Z,95.43
2023-01-19T21:15:40.628Z,95.23
2023-01-19T21:18:07.423Z,94.81
2023-01-19T21:20:34.116Z,95.18
2023-01-19T21:23:00.783Z,94.90
2023-01-19T21:25:27.533Z,95.20
2023-01-19T21:27:54.174Z,95.36
2023-01-19T21:30:20.996Z,95.53
2023-01-19T21:32:47.805Z,95.71
2023-01-19T21:35:14.864Z,95.17
2023-01-19T21:37:41.895Z,95.30
2023-01-19T21:40:09.279Z,94.97
2023-01-19T21:42:35.917Z,94.94
2023-01-19T21:45:02.663Z,95.08
2023-01-19T21:47:29.396Z,94.77
2023-01-19T21:49:56.171Z,95.09
2023-01-19T21:52:22.908Z,94.89
2023-01-19T21:54:49.644Z,95.40
2023-01-19T21:57:19.513Z,95.32
2023-01-19T21:59:46.218Z,95.24
2023-01-19T22:02:13.143Z,95.31
2023-01-19T22:04:40.599Z,95.05
2023-01-19T22:07:07.373Z,95.02
2023-01-19T22:09:35.030Z,95.00
2023-01-19T22:12:02.158Z,94.95
2023-01-19T22:14:29.346Z,95.17
2023-01-19T22:16:56.112Z,94.81
2023-01-19T22:19:22.936Z,94.96
2023-01-19T22:21:49.606Z,94.75
2023-01-19T22:24:16.383Z,94.51
2023-01-19T22:26:43.079Z,94.64
2023-01-19T22:29:11.239Z,94.28
2023-01-19T22:31:38.899Z,95.32
2023-01-19T22:34:10.099Z,95.28
2023-01-19T22:36:37.576Z,95.34
2023-01-19T22:39:09.829Z,95.10
2023-01-19T22:41:39.364Z,95.42
2023-01-19T22:44:08.703Z,95.72
2023-01-19T22:46:36.512Z,95.18
2023-01-19T22:49:07.615Z,94.69
2023-01-19T22:51:34.844Z,94.32
2023-01-19T22:54:02.400Z,94.21
2023-01-19T22:56:30.891Z,94.63
2023-01-19T22:58:58.031Z,94.93
2023-01-19T23:01:33.572Z,94.89
2023-01-19T23:04:01.794Z,94.96
2023-01-19T23:06:30.376Z,95.45
2023-01-19T23:08:59.320Z,95.47
2023-01-19T23:11:35.569Z,95.73
2023-01-19T23:14:03.204Z,95.80
2023-01-19T23:16:30.055Z,95.76
2023-01-19T23:18:57.772Z,95.97
2023-01-19T23:21:26.988Z,95.49
2023-01-19T23:24:01.263Z,95.48
2023-01-19T23:26:28.767Z,95.00
2023-01-19T23:29:00.396Z,94.79
2023-01-19T23:31:32.703Z,95.34
2023-01-19T23:34:01.563Z,95.45
2023-01-19T23:36:30.175Z,95.89
2023-01-19T23:38:58.751Z,95.75
2023-01-19T23:41:26.337Z,96.16
2023-01-19T23:43:53.003Z,95.84
2023-01-19T23:46:20.186Z,95.49
2023-01-19T23:48:47.147Z,95.68
2023-01-19T23:51:19.766Z,95.71
2023-01-19T23:53:46.777Z,95.38
2023-01-19T23:56:17.364Z,95.66
2023-01-19T23:58:45.370Z,95.61
